Susquehanna — WDD9976 — position and weather

sailwx.info

Track history (hours):
 
Tides and Currents Weather Stations Pressure Air Temp Water Temp Dewpoint Dewpoint Depression Visibility Wind Speed Wind Dir Waves Ship Positions

Susquehanna

Owner: Vane Line Bunkering, Inc., Baltimore, MD. More information available from US FCC via Universal Licensing System and Coast Guard Vessel Documentation Center.

Last reported at 2016-Dec-04 00:10 UTC. Time now 2016-Dec-04 06:05 UTC.
Position N 25°39' W 080°02'.

Length 28 m; draft 4.2 m.

Type: Tug. MMSI: 367318750.

Date/timePositionNaut miles runAvg speedWind from/ knotsBaromVisibWave heightAir tempDewpointWater temp
2016-Dec-04 00:10N 25°39' W 080°02'3 5.6
2016-Dec-03 23:33N 25°42' W 080°02'6 6.4
2016-Dec-03 22:34N 25°48' W 080°03'8 7.7
2016-Dec-03 21:33N 25°56' W 080°04'8 7.5
2016-Dec-03 20:33N 26°04' W 080°03'7 6.9
2016-Dec-03 19:33N 26°10' W 080°02'7 6.6
2016-Dec-03 18:33N 26°17' W 080°02'7 6.7
2016-Dec-03 17:33N 26°24' W 080°01'29 6.4
2016-Dec-03 13:03N 26°53' W 079°59'3 6.5
2016-Dec-03 12:33N 26°56' W 079°59'  
2016-Nov-25 18:24N 36°49' W 075°52'6 7.0
2016-Nov-25 17:33N 36°54' W 075°56'8 7.7
2016-Nov-25 16:33N 36°60' W 076°02'8 5.3
2016-Nov-25 15:04N 37°06' W 076°08'17 6.3
2016-Nov-25 12:22N 37°23' W 076°10'93 7.1
2016-Nov-24 23:22N 38°55' W 076°25'6 7.8
2016-Nov-24 22:33N 39°01' W 076°23'8 7.3
2016-Nov-24 21:24N 39°10' W 076°25'6 7.1
2016-Nov-24 20:33N 39°13' W 076°32'3 3.0
2016-Nov-24 19:33N 39°15' W 076°34'0 0.1
2016-Nov-24 18:20N 39°15' W 076°34'0 0.0
2016-Nov-24 17:30N 39°15' W 076°34'0 0.0
2016-Nov-24 14:30N 39°15' W 076°34'0 0.0
2016-Nov-24 13:20N 39°15' W 076°34'0 0.0
2016-Nov-24 12:28N 39°15' W 076°34'0 0.0
2016-Nov-24 11:32N 39°15' W 076°34'0 0.0
2016-Nov-24 10:21N 39°15' W 076°34'0 0.0
2016-Nov-24 09:27N 39°15' W 076°34'0 0.0
2016-Nov-24 08:31N 39°15' W 076°34'0 0.0
2016-Nov-24 07:32N 39°15' W 076°34'0 0.0
2016-Nov-24 06:32N 39°15' W 076°34'0 0.0
2016-Nov-24 05:33N 39°15' W 076°34'0 0.0
2016-Nov-24 04:31N 39°15' W 076°34'0 0.3
2016-Nov-24 03:32N 39°15' W 076°34'0 0.0
2016-Nov-24 02:33N 39°15' W 076°34'0 0.0
2016-Nov-24 01:04N 39°15' W 076°34'0 0.0
2016-Nov-24 00:22N 39°15' W 076°34'  
Track history (hours):
 
Tides and Currents Weather Stations Pressure Air Temp Water Temp Dewpoint Dewpoint Depression Visibility Wind Speed Wind Dir Waves Ship Positions

Susquehanna

Owner: Vane Line Bunkering, Inc., Baltimore, MD. More information available from US FCC via Universal Licensing System and Coast Guard Vessel Documentation Center.

Last reported at 2016-Dec-04 00:10 UTC. Time now 2016-Dec-04 06:05 UTC.
Position N 25°39' W 080°02'.

Length 28 m; draft 4.2 m.

Type: Tug. MMSI: 367318750.

Date/timePositionNaut miles runAvg speedWind from/ knotsBaromVisibWave heightAir tempDewpointWater temp
2016-Dec-04 00:10N 25°39' W 080°02'3 5.6
2016-Dec-03 23:33N 25°42' W 080°02'6 6.4
2016-Dec-03 22:34N 25°48' W 080°03'8 7.7
2016-Dec-03 21:33N 25°56' W 080°04'8 7.5
2016-Dec-03 20:33N 26°04' W 080°03'7 6.9
2016-Dec-03 19:33N 26°10' W 080°02'7 6.6
2016-Dec-03 18:33N 26°17' W 080°02'7 6.7
2016-Dec-03 17:33N 26°24' W 080°01'29 6.4
2016-Dec-03 13:03N 26°53' W 079°59'3 6.5
2016-Dec-03 12:33N 26°56' W 079°59'  
2016-Nov-25 18:24N 36°49' W 075°52'6 7.0
2016-Nov-25 17:33N 36°54' W 075°56'8 7.7
2016-Nov-25 16:33N 36°60' W 076°02'8 5.3
2016-Nov-25 15:04N 37°06' W 076°08'17 6.3
2016-Nov-25 12:22N 37°23' W 076°10'93 7.1
2016-Nov-24 23:22N 38°55' W 076°25'6 7.8
2016-Nov-24 22:33N 39°01' W 076°23'8 7.3
2016-Nov-24 21:24N 39°10' W 076°25'6 7.1
2016-Nov-24 20:33N 39°13' W 076°32'3 3.0
2016-Nov-24 19:33N 39°15' W 076°34'0 0.1
2016-Nov-24 18:20N 39°15' W 076°34'0 0.0
2016-Nov-24 17:30N 39°15' W 076°34'0 0.0
2016-Nov-24 14:30N 39°15' W 076°34'0 0.0
2016-Nov-24 13:20N 39°15' W 076°34'0 0.0
2016-Nov-24 12:28N 39°15' W 076°34'0 0.0
2016-Nov-24 11:32N 39°15' W 076°34'0 0.0
2016-Nov-24 10:21N 39°15' W 076°34'0 0.0
2016-Nov-24 09:27N 39°15' W 076°34'0 0.0
2016-Nov-24 08:31N 39°15' W 076°34'0 0.0
2016-Nov-24 07:32N 39°15' W 076°34'0 0.0
2016-Nov-24 06:32N 39°15' W 076°34'0 0.0
2016-Nov-24 05:33N 39°15' W 076°34'0 0.0
2016-Nov-24 04:31N 39°15' W 076°34'0 0.3
2016-Nov-24 03:32N 39°15' W 076°34'0 0.0
2016-Nov-24 02:33N 39°15' W 076°34'0 0.0
2016-Nov-24 01:04N 39°15' W 076°34'0 0.0
2016-Nov-24 00:22N 39°15' W 076°34'  

Dump ship's entire track history